Amunt
Inicio > meteoXarxa
Fes-te'n soci

METEOXARXA

Sant Rafel del Riu
Ubicació
Comarca el Baix Maestrat
Altitud (msnm)
Posició geogràfica 40° 35' 24.00" N, 00° 22' 9.84" E
Model
Presa de dades
Font de les dades IVIA
Estadístiques. Resum
Data Temperatura (ºC) Humitat (%) Pressió (hPa) Vent (km/h) Precipit. (mm)
Mínima Mitjana Màxima Mínima Mitjana Màxima Mínima Mitjana Màxima Predom. Mitjana Ràfega màxima Total Dies de pluja
Mínima Mitjana Màxima Mínima Mitjana Màxima
Últimes dades diàries
24-02-2017 9,0     11,1     14,7 75,2 N 4,6 20,1 5,0  
23-02-2017 7,8     11,9     18,4 65,9 W 2,8 13,4 0,0  
22-02-2017 4,1     10,3     19,1 66,5 W 3,1 12,8 0,0  
21-02-2017 2,8     9,6     17,6 72,8 NW 3,5 12,6 0,0  
20-02-2017 3,6     9,4     16,9 70,8 W 3,9 16,1 0,2  
19-02-2017 4,3     9,3     14,6 83,0 N 4,8 19,0 0,0  
18-02-2017 3,0     8,8     15,9 81,4 NW 3,3 13,2 0,2  
17-02-2017 5,6     9,2     15,8 91,5 NW 2,9 17,1 0,2  
16-02-2017 6,9     11,0     14,6 91,8 N 3,0 11,4 0,2  
15-02-2017 7,5     10,7     16,0 89,2 NW 2,9 13,1 0,2  
14-02-2017 5,4     10,1     16,7 80,7 NW 3,3 13,1 0,0  
13-02-2017 7,6     11,7     13,6 94,2 NE 8,7 25,7 8,4  
12-02-2017 10,0     12,1     14,8 83,3 NE 8,2 21,7 0,0  
11-02-2017 5,5     9,2     11,8 89,5 NE 6,9 20,3 0,2  
10-02-2017 2,6     7,0     11,6 78,8 W 2,9 15,0 0,0  
09-02-2017 3,3     8,1     13,5 55,4 NW 8,6 37,7 0,0  
08-02-2017 7,4     9,1     11,8 48,0 NW 25,0 60,9  
07-02-2017 9,8     15,2     20,1 54,4 NW 7,6 29,9 0,0  
06-02-2017 8,6     13,3     17,0 47,0 NW 17,2 53,0 0,4  
05-02-2017 7,7     10,6     14,2 57,4 NW 14,0 53,5 0,8  
04-02-2017 6,2     11,7     21,4 76,9 NW 3,8 20,9 0,0  
03-02-2017 5,0     9,9     18,2 77,8 W 3,4 17,6 0,0  
02-02-2017 6,4     8,1     10,3 99,7 N 2,7 13,0 2,6  
01-02-2017 4,8     9,1     14,3 95,8 NW 2,6 9,0 0,2  
30-01-2017 6,2     10,1     16,5 78,4 NW 2,1 9,0 0,0  
29-01-2017 2,8     7,8     13,8 68,9 W 2,9 14,5 0,0  
28-01-2017 5,5     9,8     14,3 62,1 NW 7,3 29,2 6,2  
27-01-2017 5,4     8,4     12,3 94,0 N 3,1 14,0 28,3  
26-01-2017 1,9     5,6     9,6 85,9 N 2,9 13,7 0,0  
25-01-2017 1,6     6,3     11,4 57,0 NW 3,5 14,0 0,0  
24-01-2017 6,2     9,5     13,8 46,6 NW 7,9 24,7 0,0  
23-01-2017 4,8     7,9     10,8 70,0 N 5,0 18,9 1,8  
Dades del mes en curs (actualitzades fins l'últim dia disponible)
02/2017 2,6 6,0 10,0 10,3 10,3 15,5 21,4 76,1   6,2 60,9 18,7  
Últimes dades mensuals
01/2017 -1,7 3,1 7,4 12,1 18,3 18,7 68,1 100,0 N 6,4 41,5 139,3
12/2016 -0,8 4,5 11,7 8,0 8,2 13,1 16,8 57,2 87,0 96,8 5,6 34,6 64,9 22
11/2016 2,9 7,8 12,1 12,1 10,9 16,8 24,7 44,2 74,9 96,7 4,9 37,8 118,6 14
10/2016 7,8 12,7 16,8 16,9 15,9 21,7 25,5 60,4 81,8 94,2 3,2 22,5 26,5 15
09/2016 11,8 16,4 21,3 27,0 37,8 18,6 70,2 98,9 O 4,3 45,0 57,1
08/2016 14,1 18,2 23,6 29,0 31,6 24,8 66,8 97,8 S 4,4 24,5 2,8
07/2016 13,0 18,2 24,2 29,6 32,6 21,6 62,2 98,1 S 5,0 28,3 0,6
06/2016 12,2 15,8 20,5 21,1 22,8 26,6 32,4 37,3 63,3 84,5 5,1 38,2 16,3 9
05/2016 7,8 11,7 16,4 21,2 26,5 20,1 68,0 100,0 SO 5,9 45,2 48,4
04/2016 5,1 8,8 13,6 18,5 23,3 23,5 68,6 100,0 NO 6,0 46,9 63,9
03/2016 1,3 6,6 11,0 15,9 22,1 21,1 63,5 100,0 NO 7,3 51,5 45,0
02/2016 -1,4 5,7 10,7 16,2 23,5 15,1 60,0 99,2 NO 6,7 109,4 18,1
01/2016 1,3 5,8 10,2 15,2 23,0 26,2 70,8 100,0 NO 5,0 45,4 11,9
Dades de l'any en curs (actualitzades fins l'últim dia disponible)
2017 -1,7 4,4 10,0 8,7 6,2 13,7 21,4 71,6   6,3 60,9 158,0  
Últimes dades anuals
2007 616,0
2008 662,0
2009 -1,4 13,9 22,7 18,9 4,1 24,2 38,2 34,0 65,5 96,0 4,1 60,0 395,0 62
2010 -2,3 10,4 21,7 15,0 3,1 20,0 35,2 32,0 68,5 100,0 5,8 70,0 493,0 99
2011 427,6
2012 542,3
2014 -1,6 11,9 16,4 21,4 31,8 13,7 69,9 99,4 O 5,5 66,9 557,7
2015 -1,6 11,9 17,0 22,7 41,3 7,4 66,1 97,5 NO 5,1 58,4 515,5